WSH weather

Brookhaven Airport
Shirley, New York, United States

Public forecast

Using degrees Fahrenheit for public forecast. Weather courtesy of forecast.io.

Current aviation weather report (METAR) for Brookhaven Airport

Retrieved 2019/12/11 10:11 UTC (48 minutes ago):

KHWV 111011Z AUTO 36007KT 1 3/4SM -SN BR BKN006 OVC009 01/M01 A3018 RMK AO2 P0001 T00061006 TSNO

Closest aviation forecast (TAF) to Brookhaven Airport

Closest forecast is Long Island Mac Arthur Airport, 10.6 nm (19.7 km) W. Retrieved 2019/12/11 06:33 UTC (4 hours ago):

TAF KISP 110530Z 1106/1206 32012KT 6SM -RA BR SCT010 OVC040 TEMPO 1106/1108 5SM -RA BR OVC010 FM110800 33019KT 4SM -RASN BR SCT008 OVC010 FM111000 34008KT 2SM -SN BR OVC008 FM111600 32007KT 6SM BR SCT008 OVC010 FM111900 28008KT P6SM SCT020 OVC030 FM112300 29011KT P6SM SCT030